Back to top

Cheyenne, WY weather

Cheyenne Regional/Jerry Olson Field, Cheyenne, WY: 7/02/2020 11:53
Visibility10 statute milesclear sky
View 7-Day Forecast
Area Summary
Sky/CloudsSky Clear
Weather [last 24 hours]None
Pressure30.16 in.Hg (1021 hPa)
3-hour Pressure Tendency0.008858 in.Hg (0.3 hPa) Steady or increasing, then decreasing; or decreasing then decreasing more rapidly
Dew Point25 °F (-3.9 °C)
Relative Humidity11.2 %
Temperature84.9 °F (29.4 °C)red thermometer
Reading TimeMinimum to Maximum Temperature
6-hr ending 7/2@11:5359 °F to 84.9 °F (15 °C to 29.4 °C)
6-hr ending 7/2@05:5359 °F to 64.9 °F (15 °C to 18.3 °C)
6-hr ending 7/1@23:5364.9 °F to 82 °F (18.3 °C to 27.8 °C)
6-hr ending 7/1@17:5373.9 °F to 82.9 °F (23.3 °C to 28.3 °C)
24-hr ending 7/2@00:5348 °F to 82.9 °F (8.9 °C to 28.3 °C)
Wind8.06 MPH (7 KT) green arrow pointing 247.5 degrees
Wind FromWest/Southwest (240 Degrees)
Rolling 24-hr Peak Wind35.7 MPH (31 KT) on 7/1@12:59
Rolling 24-hr Peak Wind FromSouth (170 Degrees)
Twilight Begins04:56Sunshine Yesterday
Sunrise05:30N/A
Sunset20:37
Twilight Ends21:11
METARKCYS 021753Z 24007KT 10SM CLR 29/M04 A3016 RMK AO2 SLP113 T02941039 10294 20150 58003
Tags: